Grisham, Illinois
Current Conditions -  °F | °C
As of 4:55 AM on Friday 31 Oct 2014 (Local Time) from K3LF Reporting Station
Haze Haze  
Wind Chill: 39°   Ceiling: 6500
Heat Index: 44°   Visibility: 5mi
Dew Point: 41°   Wind: 7mph
Humidity: 91%   Direction: 330°NNW
Pressure: 30.09"   Gusts: NA
Location:  39.0351°N, 89.5256°W
Report Text: K3LF 310955Z AUTO 33006KT 5SM BR BKN065 OVC075 06/05 A3009 RMK AO2 T00640051
Loading
Personal Weather Stations






























Interactive Weather Map
Tropical Storm Tracking
New forecast layout! Learn more

10-Day Weather Forecast

Advertisements
Track Severe Weather on mobile